Observations for PRATICA DI MARE, Italy (LIRE)

LIRE 240855Z 23006KT 190V260 CAVOK 27/18 Q1016 RMK SKC VIS MIN 9999 WIND THR13 24005KT WIND THR31 /////KT BLU   
LIRE 240755Z 21004KT CAVOK 27/18 Q1016 RMK SKC VIS MIN 9999 WIND THR13 28003KT WIND THR31 /////KT BLU   
LIRE 240655Z VRB02KT CAVOK 25/18 Q1016 RMK SKC VIS MIN 9999 WIND THR13 03003KT WIND THR31 /////KT BLU   
LIRE 240555Z 03005KT CAVOK 24/17 Q1015 RMK SKC VIS MIN 9999 WIND THR13 05004KT WIND THR31 /////KT BLU   
LIRE 240455Z 03003KT CAVOK 20/18 Q1015 RMK SKC VIS MIN 9999 WIND THR13 03002KT WIND THR31 /////KT BLU   
LIRE 240355Z 03004KT CAVOK 19/17 Q1015 RMK SKC VIS MIN 9999 WIND THR13 03002KT WIND THR31 /////KT BLU   
LIRE 240255Z 05003KT CAVOK 19/17 Q1015 RMK SKC VIS MIN 9999 WIND THR13 01002KT WIND THR31 /////KT BLU   
LIRE 240155Z 04005KT CAVOK 19/18 Q1015 RMK SKC VIS MIN 9999 WIND THR13 06003KT WIND THR31 /////KT BLU   
LIRE 240055Z 26001KT CAVOK 20/18 Q1015 RMK SKC VIS MIN 9999 WIND THR13 02002KT WIND THR31 /////KT BLU   
LIRE 232355Z 02004KT CAVOK 20/18 Q1015 RMK SKC VIS MIN 9999 WIND THR13 03003KT WIND THR31 /////KT BLU   
LIRE 232255Z 36004KT CAVOK 20/19 Q1015 RMK SKC VIS MIN 9999 WIND THR13 02002KT WIND THR31 /////KT BLU   
LIRE 232155Z 33002KT CAVOK 21/19 Q1015 RMK SKC VIS MIN 9999 WIND THR13 34002KT WIND THR31 /////KT BLU   
LIRE 232055Z 36003KT CAVOK 21/19 Q1014 RMK SKC VIS MIN 9999 WIND THR13 35003KT WIND THR31 /////KT BLU   
LIRE 231955Z 34002KT CAVOK 22/20 Q1014  
LIRE 231955Z 34002KT CAVOK 22/20 Q1014 RMK SKC VIS MIN 9999 WIND THR13 35002KT WIND THR31 /////KT BLU
LIRE 231855Z 28004KT CAVOK 24/21 Q1014  
LIRE 231855Z 28004KT CAVOK 24/21 Q1014 RMK FEW FEW120 VIS MIN 9999 WIND THR13 31006KT WIND THR31 /////KT BLU
LIRE 231755Z 30006KT CAVOK 25/21 Q1014 RMK SKC VIS MIN 9999 WIND THR13 31006KT WIND THR31 /////KT BLU   
LIRE 231655Z 29010KT CAVOK 26/21 Q1014 RMK SKC VIS MIN 9999 WIND THR13 30009KT WIND THR31 /////KT BLU   
LIRE 231555Z 28013KT CAVOK 26/21 Q1014 RMK SKC VIS MIN 9999 WIND THR13 29013KT WIND THR31/////KT BLU
LIRE 231455Z 28013KT CAVOK 26/22 Q1014 RMK SKC VIS MIN 9999 WIND THR13 30012KT WIND THR31/////KT BLU
LIRE 231355Z 28013KT CAVOK 27/21 Q1014 RMK SKC VIS MIN 9999 WIND THR13 30010KT WIND THR31 /////KT BLU   
LIRE 231255Z 28013KT CAVOK 26/22 Q1014 RMK SKC VIS MIN 9999 WIND THR13 29009KT WIND THR31/////KT BLU
LIRE 231155Z 27010KT CAVOK 27/23 Q1014 RMK SKC VIS MIN 9999 WIND THR13 28010KT WIND THR31 /////KT BLU   
LIRE 231055Z 25007KT CAVOK 27/22 Q1014 RMK SKC VIS MIN 9999 WIND THR13 28008KT WIND THR31 /////KT BLU   
LIRE 230955Z 25008KT CAVOK 26/21 Q1014 RMK SKC VIS MIN 9999 WIND THR13 26008KT WIND THR31 /////KT BLU   
LIRE 230855Z 26008KT CAVOK 25/22 Q1013 RMK SKC VIS MIN 9999 WIND THR13 27007KT WIND THR31 /////KT BLU